createdAt,value
2022-08-05T00:01:35.588Z,100358.72
2022-08-05T00:04:18.927Z,100360.22
2022-08-05T00:06:47.059Z,100346.84
2022-08-05T00:09:15.686Z,100358.72
2022-08-05T00:11:49.002Z,100357.00
2022-08-05T00:14:28.967Z,100357.41
2022-08-05T00:16:56.280Z,100354.94
2022-08-05T00:19:24.727Z,100357.59
2022-08-05T00:21:59.980Z,100350.03
2022-08-05T00:24:30.994Z,100348.25
2022-08-05T00:26:59.919Z,100349.66
2022-08-05T00:29:37.932Z,100342.66
2022-08-05T00:32:12.262Z,100349.81
2022-08-05T00:35:05.780Z,100360.38
2022-08-05T00:37:35.777Z,100351.91
2022-08-05T00:40:27.345Z,100342.63
2022-08-05T00:43:01.011Z,100338.28
2022-08-05T00:45:43.138Z,100342.03
2022-08-05T00:48:13.526Z,100342.03
2022-08-05T00:50:44.127Z,100328.84
2022-08-05T00:53:45.070Z,100320.53
2022-08-05T00:55:59.200Z,100339.84
2022-08-05T00:58:27.725Z,100344.28
2022-08-05T01:00:55.457Z,100342.78
2022-08-05T01:03:23.515Z,100337.84
2022-08-05T01:05:51.638Z,100342.94
2022-08-05T01:08:41.774Z,100346.53
2022-08-05T01:11:13.962Z,100338.03
2022-08-05T01:14:02.798Z,100334.63
2022-08-05T01:16:38.597Z,100338.03
2022-08-05T01:19:56.041Z,100340.66
2022-08-05T01:22:29.393Z,100329.53
2022-08-05T01:25:14.242Z,100326.13
2022-08-05T01:28:07.050Z,100331.41
2022-08-05T01:30:40.104Z,100326.13
2022-08-05T01:33:21.942Z,100323.59
2022-08-05T01:35:57.486Z,100317.94
2022-08-05T01:38:30.180Z,100319.53
2022-08-05T01:41:01.303Z,100324.03
2022-08-05T01:43:29.947Z,100315.66
2022-08-05T01:45:57.918Z,100315.66
2022-08-05T01:48:30.560Z,100314.78
2022-08-05T01:51:00.158Z,100314.13
2022-08-05T01:53:55.017Z,100303.09
2022-08-05T01:58:10.296Z,100308.38
2022-08-05T01:59:20.950Z,100311.91
2022-08-05T02:01:52.126Z,100313.81
2022-08-05T02:04:24.295Z,100306.84
2022-08-05T02:06:53.107Z,100307.00
2022-08-05T02:09:20.544Z,100303.59
2022-08-05T02:12:06.160Z,100303.53
2022-08-05T02:14:43.321Z,100300.19
2022-08-05T02:18:12.509Z,100305.81
2022-08-05T02:20:20.490Z,100288.75
2022-08-05T02:22:56.769Z,100300.72
2022-08-05T02:25:33.285Z,100287.63
2022-08-05T02:28:08.644Z,100290.34
2022-08-05T02:30:51.689Z,100289.31
2022-08-05T02:33:24.532Z,100285.09
2022-08-05T02:36:05.114Z,100286.75
2022-08-05T02:38:35.390Z,100285.25
2022-08-05T02:41:14.535Z,100293.81
2022-08-05T02:44:02.640Z,100290.34
2022-08-05T02:46:53.428Z,100280.16
2022-08-05T02:49:35.842Z,100264.13
2022-08-05T02:52:09.334Z,100282.53
2022-08-05T02:54:41.200Z,100287.91
2022-08-05T02:58:11.078Z,100285.25
2022-08-05T02:59:59.839Z,100287.13
2022-08-05T03:02:38.391Z,100282.22
2022-08-05T03:05:09.384Z,100283.22
2022-08-05T03:07:59.449Z,100277.28
2022-08-05T03:10:26.511Z,100282.56
2022-08-05T03:12:54.446Z,100275.56
2022-08-05T03:15:24.343Z,100277.38
2022-08-05T03:17:58.151Z,100273.72
2022-08-05T03:20:27.318Z,100278.03
2022-08-05T03:22:57.677Z,100260.66
2022-08-05T03:25:33.079Z,100281.38
2022-08-05T03:28:14.674Z,100274.38
2022-08-05T03:30:48.733Z,100282.03
2022-08-05T03:33:17.036Z,100282.72
2022-08-05T03:35:49.776Z,100281.19
2022-08-05T03:38:17.228Z,100286.47
2022-08-05T03:40:59.964Z,100286.63
2022-08-05T03:44:08.498Z,100281.38
2022-08-05T03:46:18.320Z,100290.38
2022-08-05T03:48:46.789Z,100283.41
2022-08-05T03:52:48.778Z,100285.09
2022-08-05T03:55:50.601Z,100278.16
2022-08-05T03:57:16.736Z,100267.63
2022-08-05T03:59:54.794Z,100270.06
2022-08-05T04:02:37.952Z,100272.28
2022-08-05T04:05:09.851Z,100262.00
2022-08-05T04:07:57.430Z,100267.25
2022-08-05T04:10:37.583Z,100266.34
2022-08-05T04:13:08.135Z,100256.72
2022-08-05T04:15:36.610Z,100254.88
2022-08-05T04:18:09.372Z,100262.34
2022-08-05T04:20:38.021Z,100242.66
2022-08-05T04:23:12.606Z,100256.06
2022-08-05T04:26:00.180Z,100257.38
2022-08-05T04:28:30.790Z,100261.38
2022-08-05T04:31:01.098Z,100255.75
2022-08-05T04:33:54.468Z,100252.78
2022-08-05T04:36:44.652Z,100248.88
2022-08-05T04:39:04.351Z,100240.69
2022-08-05T04:41:37.901Z,100224.38
2022-08-05T04:44:09.041Z,100246.25
2022-08-05T04:46:37.792Z,100249.47
2022-08-05T04:49:12.428Z,100248.19
2022-08-05T04:51:44.235Z,100245.53
2022-08-05T04:54:12.130Z,100238.41
2022-08-05T04:56:40.130Z,100244.81
2022-08-05T04:59:22.460Z,100245.66
2022-08-05T05:02:07.505Z,100242.94
2022-08-05T05:04:47.922Z,100239.38
2022-08-05T05:07:18.309Z,100238.50
2022-08-05T05:09:52.350Z,100222.41
2022-08-05T05:12:21.038Z,100244.44
2022-08-05T05:14:51.359Z,100228.44
2022-08-05T05:17:23.823Z,100237.69
2022-08-05T05:19:54.975Z,100245.97
2022-08-05T05:22:26.312Z,100235.31
2022-08-05T05:24:57.134Z,100247.69
2022-08-05T05:27:41.361Z,100242.03
2022-08-05T05:30:29.433Z,100253.91
2022-08-05T05:33:03.890Z,100243.34
2022-08-05T05:35:44.960Z,100236.94
2022-08-05T05:38:12.906Z,100252.97
2022-08-05T05:40:49.566Z,100251.06
2022-08-05T05:43:22.229Z,100249.84
2022-08-05T05:46:05.483Z,100241.59
2022-08-05T05:48:37.961Z,100249.53
2022-08-05T05:51:15.848Z,100243.84
2022-08-05T05:53:54.222Z,100248.75
2022-08-05T05:56:32.782Z,100240.63
2022-08-05T05:59:06.691Z,100244.78
2022-08-05T06:01:40.308Z,100248.19
2022-08-05T06:04:14.728Z,100243.38
2022-08-05T06:06:47.627Z,100249.34
2022-08-05T06:09:25.662Z,100245.44
2022-08-05T06:12:03.002Z,100251.69
2022-08-05T06:14:31.251Z,100251.06
2022-08-05T06:16:59.083Z,100251.97
2022-08-05T06:19:35.346Z,100242.22
2022-08-05T06:22:07.079Z,100246.47
2022-08-05T06:24:35.371Z,100233.13
2022-08-05T06:27:03.911Z,100230.19
2022-08-05T06:29:49.047Z,100235.84
2022-08-05T06:32:25.128Z,100225.59
2022-08-05T06:34:59.261Z,100228.28
2022-08-05T06:37:56.446Z,100222.47
2022-08-05T06:40:18.582Z,100221.94
2022-08-05T06:42:51.983Z,100223.31
2022-08-05T06:46:02.891Z,100225.53
2022-08-05T06:48:36.593Z,100214.97
2022-08-05T06:50:56.317Z,100203.50
2022-08-05T06:53:28.417Z,100204.94
2022-08-05T06:56:00.965Z,100210.13
2022-08-05T06:58:29.965Z,100212.53
2022-08-05T07:01:04.879Z,100213.91
2022-08-05T07:03:33.883Z,100209.31
2022-08-05T07:06:05.799Z,100188.06
2022-08-05T07:08:43.048Z,100215.25
2022-08-05T07:11:15.970Z,100218.13
2022-08-05T07:14:02.380Z,100222.03
2022-08-05T07:17:57.299Z,100218.78
2022-08-05T07:22:28.185Z,100218.28
2022-08-05T07:24:59.408Z,100197.84
2022-08-05T07:27:27.554Z,100214.38
2022-08-05T07:30:24.260Z,100211.03
2022-08-05T07:32:55.472Z,100207.56
2022-08-05T07:36:04.715Z,100196.91
2022-08-05T07:38:32.421Z,100200.28
2022-08-05T07:41:04.470Z,100197.53
2022-08-05T07:43:46.739Z,100199.22
2022-08-05T07:46:25.265Z,100202.03
2022-08-05T07:49:02.590Z,100196.41
2022-08-05T07:51:37.581Z,100196.97
2022-08-05T07:54:09.711Z,100208.75
2022-08-05T07:57:00.691Z,100195.00
2022-08-05T07:59:39.047Z,100190.47
2022-08-05T08:02:16.095Z,100196.06
2022-08-05T08:04:49.223Z,100188.44
2022-08-05T08:07:18.888Z,100189.78
2022-08-05T08:09:52.422Z,100208.56
2022-08-05T08:12:35.331Z,100195.31
2022-08-05T08:15:15.323Z,100192.72
2022-08-05T08:17:52.435Z,100202.84
2022-08-05T08:20:44.087Z,100199.19
2022-08-05T08:23:59.993Z,100195.59
2022-08-05T08:26:02.455Z,100193.03
2022-08-05T08:28:35.625Z,100199.88
2022-08-05T08:31:07.874Z,100201.16
2022-08-05T08:33:37.670Z,100206.66
2022-08-05T08:38:56.143Z,100190.84
2022-08-05T08:41:51.737Z,100207.38
2022-08-05T08:45:22.264Z,100195.19
2022-08-05T08:47:47.332Z,100190.81
2022-08-05T08:50:07.690Z,100189.25
2022-08-05T08:52:47.402Z,100194.38
2022-08-05T08:56:02.739Z,100181.69
2022-08-05T08:58:08.665Z,100186.81
2022-08-05T09:00:36.490Z,100176.09
2022-08-05T09:03:06.965Z,100162.06
2022-08-05T09:05:38.798Z,100178.44
2022-08-05T09:08:27.357Z,100179.47
2022-08-05T09:10:55.026Z,100176.50
2022-08-05T09:13:23.648Z,100177.59
2022-08-05T09:15:51.951Z,100168.88
2022-08-05T09:18:19.112Z,100176.00
2022-08-05T09:20:47.348Z,100172.63
2022-08-05T09:23:21.960Z,100168.28
2022-08-05T09:26:02.156Z,100166.28
2022-08-05T09:28:33.792Z,100162.31
2022-08-05T09:31:23.000Z,100167.34
2022-08-05T09:34:03.164Z,100163.97
2022-08-05T09:36:56.327Z,100167.00
2022-08-05T09:39:41.859Z,100163.31
2022-08-05T09:42:23.309Z,100167.00
2022-08-05T09:44:56.151Z,100168.50
2022-08-05T09:47:29.684Z,100153.75
2022-08-05T09:50:13.757Z,100172.22
2022-08-05T09:52:45.943Z,100179.56
2022-08-05T09:55:56.369Z,100177.25
2022-08-05T09:58:00.660Z,100171.03
2022-08-05T10:00:29.636Z,100173.88
2022-08-05T10:02:58.828Z,100163.78
2022-08-05T10:05:32.730Z,100164.28
2022-08-05T10:08:35.879Z,100156.59
2022-08-05T10:10:50.270Z,100161.28
2022-08-05T10:13:31.571Z,100163.00
2022-08-05T10:16:34.335Z,100152.59
2022-08-05T10:19:10.232Z,100149.25
2022-08-05T10:21:40.303Z,100153.91
2022-08-05T10:24:13.781Z,100144.22
2022-08-05T10:26:51.169Z,100148.88
2022-08-05T10:30:05.758Z,100145.88
2022-08-05T10:32:52.112Z,100127.28
2022-08-05T10:35:00.832Z,100121.88
2022-08-05T10:37:40.337Z,100137.09
2022-08-05T10:40:43.469Z,100134.09
2022-08-05T10:43:17.694Z,100125.06
2022-08-05T10:46:06.337Z,100125.44
2022-08-05T10:48:52.848Z,100127.75
2022-08-05T10:51:29.177Z,100121.47
2022-08-05T10:54:01.586Z,100116.22
2022-08-05T10:56:53.550Z,100106.53
2022-08-05T11:00:04.211Z,100120.28
2022-08-05T11:02:38.518Z,100114.91
2022-08-05T11:05:06.875Z,100124.97
2022-08-05T11:08:02.477Z,100120.94
2022-08-05T11:10:27.414Z,100110.81
2022-08-05T11:12:56.829Z,100104.88
2022-08-05T11:15:58.971Z,100100.13
2022-08-05T11:18:14.574Z,100097.50
2022-08-05T11:20:46.261Z,100091.81
2022-08-05T11:24:04.139Z,100097.19
2022-08-05T11:26:34.240Z,100100.59
2022-08-05T11:29:12.359Z,100085.56
2022-08-05T11:31:54.172Z,100083.38
2022-08-05T11:34:50.767Z,100082.66
2022-08-05T11:38:28.579Z,100079.81
2022-08-05T11:41:14.071Z,100086.84
2022-08-05T11:44:07.245Z,100084.22
2022-08-05T11:47:09.807Z,100073.13
2022-08-05T11:49:25.319Z,100097.34
2022-08-05T11:51:57.386Z,100097.94
2022-08-05T11:54:32.718Z,100083.41
2022-08-05T11:57:08.643Z,100095.84
2022-08-05T11:59:50.150Z,100092.53
2022-08-05T12:02:29.919Z,100089.16
2022-08-05T12:05:00.700Z,100094.91
2022-08-05T12:08:08.457Z,100085.53
2022-08-05T12:10:24.857Z,100092.22
2022-08-05T12:13:17.352Z,100093.88
2022-08-05T12:15:53.066Z,100073.44
2022-08-05T12:18:38.969Z,100094.06
2022-08-05T12:21:15.166Z,100084.00
2022-08-05T12:23:54.597Z,100090.56
2022-08-05T12:26:23.225Z,100081.84
2022-08-05T12:28:51.467Z,100078.81
2022-08-05T12:31:23.705Z,100083.50
2022-08-05T12:34:07.516Z,100077.16
2022-08-05T12:36:37.199Z,100073.78
2022-08-05T12:39:07.006Z,100062.34
2022-08-05T12:41:36.465Z,100059.50
2022-08-05T12:44:21.769Z,100059.84
2022-08-05T12:47:01.799Z,100069.72
2022-08-05T12:50:04.747Z,100062.00
2022-08-05T12:52:38.823Z,100053.63
2022-08-05T12:55:22.689Z,100049.94
2022-08-05T12:58:50.693Z,100052.63
2022-08-05T13:02:03.284Z,100029.34
2022-08-05T13:03:32.895Z,100041.25
2022-08-05T13:06:01.844Z,100039.94
2022-08-05T13:08:33.064Z,100037.56
2022-08-05T13:11:04.090Z,100037.25
2022-08-05T13:14:04.608Z,100044.59
2022-08-05T13:16:20.397Z,100039.56
2022-08-05T13:18:58.553Z,100034.53
2022-08-05T13:21:28.542Z,100033.19
2022-08-05T13:24:08.751Z,100032.84
2022-08-05T13:26:36.422Z,100034.84
2022-08-05T13:29:05.253Z,100021.13
2022-08-05T13:32:03.330Z,100027.44
2022-08-05T13:34:25.975Z,100034.78
2022-08-05T13:36:54.340Z,100027.75
2022-08-05T13:39:24.366Z,100016.34
2022-08-05T13:42:14.364Z,100026.59
2022-08-05T13:44:46.070Z,100027.31
2022-08-05T13:47:34.919Z,100014.75
2022-08-05T13:50:06.592Z,100013.06
2022-08-05T13:52:36.913Z,100004.38
2022-08-05T13:55:07.335Z,100010.72
2022-08-05T13:57:51.530Z,99999.34
2022-08-05T14:00:27.165Z,100002.84
2022-08-05T14:02:56.971Z,99997.16
2022-08-05T14:05:48.446Z,99994.63
2022-08-05T14:08:20.398Z,100000.34
2022-08-05T14:11:03.209Z,99998.19
2022-08-05T14:13:41.931Z,100005.72
2022-08-05T14:16:11.025Z,99989.31
2022-08-05T14:18:39.158Z,99990.31
2022-08-05T14:22:09.439Z,99987.94
2022-08-05T14:23:54.117Z,99977.22
2022-08-05T14:26:35.462Z,99983.59
2022-08-05T14:29:16.205Z,99987.78
2022-08-05T14:32:03.859Z,99988.97
2022-08-05T14:34:35.404Z,99979.75
2022-08-05T14:37:04.581Z,99981.44
2022-08-05T14:39:49.441Z,99985.44
2022-08-05T14:42:20.937Z,99982.97
2022-08-05T14:44:49.850Z,99987.16
2022-08-05T14:47:17.558Z,99984.28
2022-08-05T14:50:17.166Z,99991.00
2022-08-05T14:52:53.025Z,99978.56
2022-08-05T14:55:20.990Z,99973.22
2022-08-05T14:57:54.632Z,99978.91
2022-08-05T15:00:28.090Z,99971.56
2022-08-05T15:02:57.074Z,99979.41
2022-08-05T15:05:29.544Z,99972.72
2022-08-05T15:08:13.202Z,99971.06
2022-08-05T15:10:46.051Z,99968.53
2022-08-05T15:13:14.591Z,99967.22
2022-08-05T15:15:55.552Z,99948.44
2022-08-05T15:18:25.181Z,99963.34
2022-08-05T15:20:52.190Z,99966.19
2022-08-05T15:23:19.830Z,99964.69
2022-08-05T15:25:53.303Z,99961.19
2022-08-05T15:28:27.030Z,99954.78
2022-08-05T15:30:55.236Z,99953.75
2022-08-05T15:34:05.686Z,99958.47
2022-08-05T15:36:17.422Z,99951.75
2022-08-05T15:41:04.792Z,99953.75
2022-08-05T15:41:56.143Z,99948.56
2022-08-05T15:44:27.415Z,99938.34
2022-08-05T15:46:55.700Z,99937.03
2022-08-05T15:49:40.950Z,99934.69
2022-08-05T15:52:16.385Z,99929.81
2022-08-05T15:54:44.412Z,99923.97
2022-08-05T15:57:14.020Z,99899.50
2022-08-05T15:59:41.272Z,99904.88
2022-08-05T16:02:09.562Z,99918.06
2022-08-05T16:04:42.409Z,99898.50
2022-08-05T16:07:10.785Z,99913.06
2022-08-05T16:09:41.518Z,99903.84
2022-08-05T16:12:09.416Z,99917.59
2022-08-05T16:14:38.709Z,99908.53
2022-08-05T16:17:05.881Z,99902.19
2022-08-05T16:20:04.553Z,99899.16
2022-08-05T16:22:27.528Z,99879.03
2022-08-05T16:25:01.079Z,99901.97
2022-08-05T16:28:00.152Z,99906.47
2022-08-05T16:30:26.038Z,99901.63
2022-08-05T16:32:54.391Z,99901.25
2022-08-05T16:35:27.957Z,99904.47
2022-08-05T16:38:14.886Z,99907.13
2022-08-05T16:40:52.001Z,99904.25
2022-08-05T16:43:26.550Z,99896.75
2022-08-05T16:46:04.377Z,99907.75
2022-08-05T16:48:38.538Z,99904.75
2022-08-05T16:51:09.677Z,99889.66
2022-08-05T16:54:03.141Z,99901.19
2022-08-05T16:56:27.416Z,99886.19
2022-08-05T16:58:54.598Z,99899.44
2022-08-05T17:01:22.415Z,99895.88
2022-08-05T17:03:52.251Z,99903.69
2022-08-05T17:06:20.671Z,99902.50
2022-08-05T17:08:54.362Z,99896.97
2022-08-05T17:11:25.931Z,99904.44
2022-08-05T17:14:05.671Z,99890.38
2022-08-05T17:16:38.420Z,99897.38
2022-08-05T17:19:07.601Z,99892.69
2022-08-05T17:21:37.700Z,99905.97
2022-08-05T17:24:19.778Z,99897.91
2022-08-05T17:26:57.883Z,99903.88
2022-08-05T17:29:40.004Z,99902.81
2022-08-05T17:32:11.798Z,99908.09
2022-08-05T17:34:47.546Z,99909.38
2022-08-05T17:37:40.824Z,99915.34
2022-08-05T17:40:10.297Z,99903.91
2022-08-05T17:42:43.175Z,99933.97
2022-08-05T17:45:21.039Z,99981.25
2022-08-05T17:47:53.836Z,100001.53
2022-08-05T17:50:28.090Z,100001.28
2022-08-05T17:52:59.273Z,100012.47
2022-08-05T17:55:27.331Z,100017.88
2022-08-05T17:58:02.346Z,100045.41
2022-08-05T18:00:30.439Z,100061.84
2022-08-05T18:02:58.108Z,100055.28
2022-08-05T18:05:27.910Z,100056.09
2022-08-05T18:07:56.901Z,100063.22
2022-08-05T18:10:24.259Z,100073.22
2022-08-05T18:12:52.040Z,100081.13
2022-08-05T18:15:19.514Z,100090.78
2022-08-05T18:17:59.026Z,100107.06
2022-08-05T18:20:31.641Z,100107.00
2022-08-05T18:23:09.280Z,100103.06
2022-08-05T18:25:45.319Z,100100.25
2022-08-05T18:28:16.597Z,100106.38
2022-08-05T18:30:51.370Z,100088.41
2022-08-05T18:33:22.796Z,100095.59
2022-08-05T18:36:04.284Z,100088.97
2022-08-05T18:38:36.102Z,100112.91
2022-08-05T18:41:53.681Z,100134.72
2022-08-05T18:43:55.039Z,100134.75
2022-08-05T18:46:25.882Z,100132.88
2022-08-05T18:48:56.321Z,100152.97
2022-08-05T18:52:03.341Z,100138.03
2022-08-05T18:54:31.959Z,100143.88
2022-08-05T18:57:00.954Z,100147.22
2022-08-05T18:59:44.082Z,100141.44
2022-08-05T19:02:26.980Z,100146.53
2022-08-05T19:05:02.167Z,100177.69
2022-08-05T19:07:50.294Z,100182.56
2022-08-05T19:10:26.447Z,100199.25
2022-08-05T19:12:54.460Z,100193.94
2022-08-05T19:15:57.648Z,100205.06
2022-08-05T19:18:13.394Z,100219.78
2022-08-05T19:20:49.561Z,100233.06
2022-08-05T19:24:03.604Z,100231.16
2022-08-05T19:26:04.020Z,100241.50
2022-08-05T19:28:32.786Z,100226.03
2022-08-05T19:31:04.893Z,100226.28
2022-08-05T19:33:36.787Z,100226.28
2022-08-05T19:36:06.774Z,100224.84
2022-08-05T19:38:35.488Z,100212.06
2022-08-05T19:41:07.003Z,100220.22
2022-08-05T19:44:06.954Z,100213.47
2022-08-05T19:46:30.128Z,100196.56
2022-08-05T19:49:05.599Z,100206.19
2022-08-05T19:52:09.080Z,100194.88
2022-08-05T19:54:29.568Z,100205.50
2022-08-05T19:57:09.238Z,100193.81
2022-08-05T19:59:56.429Z,100190.28
2022-08-05T20:02:31.332Z,100173.16
2022-08-05T20:04:59.878Z,100180.88
2022-08-05T20:07:47.416Z,100195.31
2022-08-05T20:10:17.355Z,100185.59
2022-08-05T20:12:49.341Z,100196.28
2022-08-05T20:15:48.367Z,100179.13
2022-08-05T20:18:10.354Z,100191.44
2022-08-05T20:20:57.320Z,100207.34
2022-08-05T20:23:39.569Z,100207.78
2022-08-05T20:26:16.635Z,100222.00
2022-08-05T20:28:48.244Z,100230.94
2022-08-05T20:31:16.479Z,100227.41
2022-08-05T20:33:45.257Z,100228.63
2022-08-05T20:36:14.331Z,100228.53
2022-08-05T20:38:53.265Z,100233.81
2022-08-05T20:41:27.137Z,100232.84
2022-08-05T20:44:17.641Z,100222.25
2022-08-05T20:46:48.216Z,100226.31
2022-08-05T20:49:18.458Z,100228.44
2022-08-05T20:51:53.514Z,100237.59
2022-08-05T20:54:26.081Z,100244.78
2022-08-05T20:57:14.341Z,100226.19
2022-08-05T20:59:46.152Z,100238.22
2022-08-05T21:02:30.800Z,100221.56
2022-08-05T21:04:57.951Z,100259.88
2022-08-05T21:07:50.870Z,100265.84
2022-08-05T21:10:17.310Z,100257.84
2022-08-05T21:12:57.953Z,100251.72
2022-08-05T21:15:33.717Z,100260.84
2022-08-05T21:18:02.419Z,100271.34
2022-08-05T21:20:33.270Z,100298.66
2022-08-05T21:23:01.281Z,100307.25
2022-08-05T21:25:33.745Z,100335.84
2022-08-05T21:28:03.508Z,100343.44
2022-08-05T21:30:31.769Z,100319.31
2022-08-05T21:33:01.794Z,100305.53
2022-08-05T21:35:43.626Z,100297.28
2022-08-05T21:38:17.541Z,100285.41
2022-08-05T21:40:45.262Z,100283.06
2022-08-05T21:43:17.695Z,100287.94
2022-08-05T21:45:57.624Z,100289.84
2022-08-05T21:48:29.601Z,100297.69
2022-08-05T21:50:59.131Z,100300.63
2022-08-05T21:53:27.164Z,100299.38
2022-08-05T21:56:05.924Z,100305.06
2022-08-05T21:58:48.256Z,100296.88
2022-08-05T22:01:26.434Z,100301.28
2022-08-05T22:03:54.126Z,100293.38
2022-08-05T22:06:35.382Z,100291.88
2022-08-05T22:09:13.887Z,100298.84
2022-08-05T22:11:46.740Z,100294.84
2022-08-05T22:14:35.471Z,100293.34
2022-08-05T22:17:06.696Z,100303.09
2022-08-05T22:20:03.358Z,100317.22
2022-08-05T22:22:27.731Z,100307.81
2022-08-05T22:25:21.293Z,100307.28
2022-08-05T22:28:08.177Z,100323.78
2022-08-05T22:30:55.578Z,100330.09
2022-08-05T22:33:57.106Z,100339.75
2022-08-05T22:36:16.044Z,100342.41
2022-08-05T22:38:47.999Z,100339.84
2022-08-05T22:42:04.164Z,100338.66
2022-08-05T22:44:05.088Z,100343.31
2022-08-05T22:46:32.739Z,100351.25
2022-08-05T22:49:00.349Z,100360.34
2022-08-05T22:52:02.966Z,100359.59
2022-08-05T22:54:15.148Z,100366.75
2022-08-05T22:56:43.147Z,100366.00
2022-08-05T22:59:45.160Z,100379.22
2022-08-05T23:02:06.231Z,100384.63
2022-08-05T23:04:34.668Z,100385.66
2022-08-05T23:07:02.367Z,100380.56
2022-08-05T23:09:57.373Z,100386.25
2022-08-05T23:12:18.249Z,100384.75
2022-08-05T23:14:45.911Z,100388.34
2022-08-05T23:17:35.106Z,100365.72
2022-08-05T23:20:17.911Z,100389.38
2022-08-05T23:22:47.624Z,100399.47
2022-08-05T23:25:51.725Z,100393.72
2022-08-05T23:28:06.926Z,100399.84
2022-08-05T23:30:40.381Z,100411.75
2022-08-05T23:33:22.229Z,100406.28
2022-08-05T23:35:56.003Z,100406.47
2022-08-05T23:38:26.161Z,100407.38
2022-08-05T23:40:54.039Z,100406.63
2022-08-05T23:43:25.245Z,100410.22
2022-08-05T23:46:20.579Z,100419.84
2022-08-05T23:48:59.710Z,100416.34
2022-08-05T23:51:53.437Z,100413.16
2022-08-05T23:54:26.756Z,100416.81
2022-08-05T23:57:03.626Z,100428.50
